Benjamin Reid

Olheiro-Chefe - Burton Albion
20 Jan 2028
Quinta-feira
Processo

Personalidade

Adaptabilidade (3) Ambição (11) Controvérsia (14) Lealdade (18) Pressão (3) Profissionalismo (12) Espírito Esportivo (12) Temperamento (12)

Perfil

Estilo de Treinamento Democrático
Licença Nacional A
Determinação 3
Gestão de Pessoas 3
Motivação 6
Disciplina 4
Satisfação no Trabalho
100%
Fadiga
0%
Função Olheiro-Chefe
Salário 15.2K p/s
Contrato 14.03.2030

Desempenho

Comportamento Bom
Eficácia do Treinamento
26%
Desenvolvimento do Jogador
30%
Prevenção de Lesões
15%
Implementação Tática
40%

Eventos Recentes

Participando de desenvolvimento profissional agora
Participou de uma reunião de recrutamento agora
Participou de uma reunião de recrutamento agora
Participou de uma reunião de recrutamento agora
Participou de uma reunião de recrutamento 7d atrás
Participou de uma reunião de recrutamento 7d atrás
Participando de desenvolvimento profissional 7d atrás
Participando de desenvolvimento profissional 7d atrás

Monitorando agora

118
Jogador Clube Status Habilidade Confiança Observado Última observação Último voto
Beryly Lubala Wycombe Wanderers Ativo 102 / 104 58% 1 17.01.2028 -
Sheldon Dinesh Tranmere Rovers Negociando 91 / 102 73% 1 01.01.2028 -
Luke Skinner Colchester United Negociando 89 / 101 71% 1 01.01.2028 -
David Button Cheltenham Town Ativo 95 / 85 51% 1 14.06.2027 -
Shota Shekiladze Akhmat Grozny Negociando 110 / 110 66% 1 01.06.2027 -
Lewis Bate Stockport County Ativo 127 / 115 40% 3 29.05.2027 -
Jacques Ekomié Wrexham Ativo 119 / 139 40% 8 28.05.2027 -
Mandla Erasmus SuperSport United Ativo 128 / 127 40% 4 28.05.2027 -
Nathan Moriah-Welsh Mansfield Town Ativo 121 / 110 40% 2 27.05.2027 -
Bali Mumba Huddersfield Town Ativo 113 / 121 40% 2 27.05.2027 -
Jack MacKenzie Plymouth Argyle Ativo 118 / 105 40% 2 26.05.2027 -
Victor Torp Coventry City Ativo 135 / 124 40% 2 26.05.2027 -
Aaron Morley Wycombe Wanderers Ativo 118 / 107 40% 1 24.05.2027 -
Archie Collins Peterborough United Ativo 113 / 111 40% 4 23.05.2027 -
Joe Tomlinson Milton Keynes Dons Ativo 115 / 104 40% 1 23.05.2027 -
Georgie Gent Barnsley Ativo 108 / 106 40% 2 22.05.2027 -
Tariq Lamptey Queens Park Rangers Ativo 133 / 131 40% 2 20.05.2027 -
Nicolas Madsen Queens Park Rangers Ativo 121 / 132 40% 2 14.05.2027 -
Kyle John Port Vale Ativo 95 / 98 40% 2 14.05.2027 -
Daniel Tonoli Modena Ativo 126 / 120 40% 2 11.05.2027 -
Josh Edwards Charlton Athletic Ativo 108 / 117 40% 1 11.05.2027 -
Sondre Langås Derby County Ativo 142 / 129 40% 1 08.05.2027 -
Jay Matete Milton Keynes Dons Ativo 115 / 106 40% 1 08.05.2027 -
Derry Murkin Derby County Ativo 140 / 124 40% 2 07.05.2027 -
Jofre Torrents Ajax Ativo 113 / 128 40% 1 05.05.2027 -
Rashid Abubakar Medeama Ativo 96 / 112 40% 1 04.05.2027 -
Bradley Cross Kaizer Chiefs Ativo 127 / 111 40% 1 04.05.2027 -
Simone Canestrelli Pisa Ativo 133 / 123 40% 2 02.05.2027 -
Jay McGrath Doncaster Rovers Ativo 117 / 100 40% 2 02.05.2027 -
Bradley Tau SuperSport United Ativo 141 / 122 40% 1 30.04.2027 -
Harry Clarke Preston Ativo 133 / 122 40% 4 27.04.2027 -
James Dornelly Peterborough United Ativo 106 / 100 40% 1 24.04.2027 -
Liam Thompson Mansfield Town Ativo 122 / 115 40% 1 24.04.2027 -
Justin Devenny Stoke City Ativo 117 / 122 40% 3 20.04.2027 -
Will Smallbone Southampton Ativo 120 / 128 40% 1 19.04.2027 -
Gavin Kilkenny Swindon Town Ativo 103 / 97 40% 1 19.04.2027 -
Siyanda Msani University of Pretoria Ativo 95 / 93 40% 2 16.04.2027 -
Kamarl Grant Barnet Ativo 97 / 115 40% 1 15.04.2027 -
Khama Manyama Ajax Cape Town Ativo 95 / 97 40% 2 14.04.2027 -
Isaac Kyereh Liberty Professionals Ativo 99 / 116 40% 1 11.04.2027 -
Callum Doyle Wrexham Ativo 138 / 133 40% 4 08.04.2027 -
Callum Styles West Bromwich Albion Ativo 107 / 117 40% 1 08.04.2027 -
Hamdi Akujobi JS Kabylie Ativo 89 / 106 40% 1 06.04.2027 -
Riley Owen Trento Ativo 91 / 101 40% 1 05.04.2027 -
Marvin Kaleta Rotherham United Ativo 117 / 116 40% 1 04.04.2027 Mais informações
Giovanni Haag Cardiff City Ativo 124 / 122 40% 1 03.04.2027 -
Kayne Ramsay Charlton Athletic Ativo 114 / 132 40% 2 31.03.2027 -
Alfie Doughty Millwall Ativo 138 / 130 40% 1 31.03.2027 -
Milan van Ewijk Mansfield Town Ativo 130 / 139 40% 2 30.03.2027 -
Josh Benson Rotherham United Ativo 113 / 98 40% 1 30.03.2027 -
Thabiso Monyane Kaizer Chiefs Ativo 106 / 98 40% 4 26.03.2027 -
Edoardo Bove Watford Ativo 139 / 125 40% 2 24.03.2027 -
Thalente Mbatha Orlando Pirates Ativo 100 / 106 40% 2 23.03.2027 -
Kelland Watts Cambridge United Ativo 103 / 104 40% 2 23.03.2027 -
Eli King Gillingham Ativo 101 / 104 40% 1 21.03.2027 -
Romano Floriani Mussolini Avellino Ativo 133 / 132 40% 1 20.03.2027 -
Williams Manyama SuperSport United Ativo 127 / 128 40% 3 17.03.2027 -
Andrei Coubiş Lincoln City Ativo 113 / 125 40% 1 16.03.2027 -
Di'Shon Bernard Sheffield Wednesday Ativo 114 / 129 40% 1 16.03.2027 -
Albie Morgan Blackpool Ativo 104 / 102 40% 1 15.03.2027 -
Yaw Sulemana BA All Stars Ativo 87 / 108 40% 1 12.03.2027 -
Teden Mengi Luton Town Ativo 118 / 123 40% 2 08.03.2027 -
Jayden Sweeney Grimsby Town Ativo 90 / 95 40% 1 07.03.2027 -
Ayanda Jiyane Golden Arrows Ativo 86 / 116 40% 1 22.02.2027 -
Luke McNally Bristol City Ativo 120 / 134 40% 1 22.02.2027 -
Christos Mouzakitis Hull City Ativo 129 / 133 40% 1 21.02.2027 -
Habib Diarra Sunderland Ativo 137 / 135 40% 1 21.02.2027 -
Filippo Ranocchia Palermo Ativo 122 / 125 40% 2 18.02.2027 -
Brian De Keersmaecker Oxford United Ativo 115 / 121 40% 1 15.02.2027 -
Baba Gyan Liberty Professionals Ativo 81 / 93 40% 1 14.02.2027 -
Leif Davis Ipswich Town Ativo 128 / 145 40% 1 10.02.2027 -
Jacob Greaves Ipswich Town Ativo 146 / 133 40% 1 08.02.2027 -
Brooklyn Poggenpoel Maritzburg United Ativo 126 / 110 40% 2 07.02.2027 -
Brodie Spencer Oxford United Ativo 121 / 124 40% 2 06.02.2027 -
Jack Currie Oxford United Ativo 110 / 129 40% 1 01.02.2027 -
Stanley Mills Oxford United Ativo 115 / 117 40% 1 30.12.2026 -
Mduduzi Shabalala Kaizer Chiefs Ativo 98 / 108 40% 1 29.12.2026 -
Ronaldo Maarman University of Pretoria Ativo 102 / 96 40% 1 25.12.2026 -
Isaiah Jones Luton Town Ativo 135 / 122 40% 2 24.12.2026 -
Mohamed Belloumi Hull City Ativo 149 / 126 40% 1 24.12.2026 -
Jason Knight Bristol City Ativo 137 / 133 40% 1 22.12.2026 -
Max Bird Birmingham Ativo 129 / 124 40% 1 22.12.2026 -
Bongani Modiba Black Aces Ativo 103 / 125 40% 3 21.12.2026 -
Koki Saito Queens Park Rangers Ativo 125 / 124 40% 1 20.12.2026 -
Million Manhoef Stoke City Ativo 118 / 121 40% 1 20.12.2026 -
Marcelo Allende Mamelodi Sundowns Ativo 135 / 129 40% 3 19.12.2026 -
Bosun Lawal Stoke City Ativo 124 / 133 40% 1 19.12.2026 -
Álex Centelles Levski Ativo 144 / 127 40% 1 18.12.2026 -
Thabang Matuludi Polokwane City Ativo 129 / 98 40% 1 13.12.2026 -
Conrad Wallem Austria Wien Ativo 131 / 133 40% 2 12.12.2026 -
Matheus Pereira Toronto FC Ativo 113 / 105 40% 1 11.12.2026 -
Bryan Ramírez FC Cincinnati Ativo 129 / 124 40% 1 09.12.2026 -
Cian Ashford Cardiff City Ativo 121 / 119 40% 1 08.12.2026 -
Derensili Sanches Fernandes Huddersfield Town Ativo 139 / 124 40% 1 06.12.2026 -
Scott Twine Bristol City Ativo 116 / 130 40% 1 04.12.2026 -
Marco Pašalić Orlando City Ativo 132 / 118 40% 3 03.12.2026 -
Tadeo Allende Inter Miami CF Ativo 132 / 109 40% 2 02.12.2026 -
Ethan Galbraith Swansea City Ativo 132 / 130 40% 1 01.12.2026 -
Prince Ukachukwu Sumgayit Ativo 114 / 106 40% 1 01.12.2026 -
Tshepang Moremi Orlando Pirates Ativo 115 / 117 40% 3 28.11.2026 Observar
Oswin Appollis Orlando Pirates Ativo 105 / 120 40% 2 27.11.2026 -
David Da Costa Portland Timbers Ativo 123 / 116 40% 1 25.11.2026 -
Antonio Galeano Remo Stars Ativo 128 / 127 40% 3 22.11.2026 -
Tomáš Rigo Stoke City Ativo 131 / 126 40% 3 19.11.2026 -
Dara O'Shea Ipswich Town Ativo 142 / 141 40% 1 18.11.2026 -
Joseph Rosales Austin FC Ativo 113 / 115 40% 1 14.11.2026 -
Alex Vigo Independiente Rivadavia Ativo 128 / 118 40% 1 12.11.2026 -
Erick Jali Black Aces Ativo 92 / 106 40% 1 12.11.2026 -
Alhassan Yusuf New England Revolution Ativo 131 / 126 40% 1 12.11.2026 -
Lukas Engel Real Salt Lake Ativo 118 / 119 40% 1 12.11.2026 -
Ho-yeon Jung Minnesota United FC Ativo 109 / 119 40% 1 08.11.2026 -
Toti Wolverhampton Ativo 127 / 127 40% 1 07.11.2026 -
Siphamandla Ncanana Maritzburg United Ativo 117 / 105 40% 1 06.11.2026 -
Justin Che New York Red Bulls Ativo 126 / 110 40% 1 04.11.2026 -
Lasse Berg Johnsen Sporting Kansas City Ativo 130 / 136 40% 1 04.11.2026 -
Giorgi Chakvetadze Watford Ativo 130 / 134 40% 1 04.11.2026 -
Dagur Dan Þórhallsson CF Montreal Ativo 138 / 108 40% 1 02.11.2026 -
Mathieu Choinière Los Angeles Football Club Ativo 105 / 106 40% 1 02.11.2026 -